Time,TemperatureF,DewpointF,PressureIn,WindDirection,WindDirectionDegrees,WindSpeedMPH,WindSpeedGustMPH,Humidity,HourlyPrecipIn,Conditions,Clouds,dailyrainin,SoftwareType,DateUTC
2013-08-02 00:01:00,65.5,60.6,29.87,NW,315,1.8,3.4,84,2.59,,,0.00,WUHU216HW,2013-08-02 04:01:00,
2013-08-02 00:06:00,65.3,60.4,29.87,WNW,293,1.8,3.4,84,2.59,,,0.57,WUHU216HW,2013-08-02 04:06:00,
2013-08-02 00:11:00,65.2,60.2,29.87,WNW,293,2.0,3.4,84,2.59,,,0.57,WUHU216HW,2013-08-02 04:11:00,
2013-08-02 00:15:00,65.2,60.2,29.87,WNW,293,2.5,3.8,84,2.59,,,0.57,WUHU216HW,2013-08-02 04:15:00,
2013-08-02 00:16:00,65.2,60.2,29.87,NW,315,2.9,3.8,84,2.59,,,0.57,WUHU216HW,2013-08-02 04:16:00,
2013-08-02 00:21:00,65.0,60.4,29.87,WNW,293,2.9,4.0,85,2.59,,,0.57,WUHU216HW,2013-08-02 04:21:00,
2013-08-02 00:26:00,64.8,59.9,29.87,NW,315,2.5,4.5,84,2.59,,,0.57,WUHU216HW,2013-08-02 04:26:00,
2013-08-02 00:31:00,64.8,60.2,29.87,NW,315,3.1,4.5,85,2.59,,,0.57,WUHU216HW,2013-08-02 04:31:00,
2013-08-02 00:36:00,64.8,60.2,29.88,NW,315,3.4,3.6,85,2.59,,,0.57,WUHU216HW,2013-08-02 04:36:00,
2013-08-02 00:41:00,64.8,60.2,29.88,NW,315,3.4,4.0,85,2.59,,,0.57,WUHU216HW,2013-08-02 04:41:00,
2013-08-02 00:46:00,64.8,60.2,29.88,NW,315,3.4,4.0,85,2.59,,,0.57,WUHU216HW,2013-08-02 04:46:00,
2013-08-02 00:51:00,64.6,59.7,29.87,NW,315,3.1,3.8,84,2.59,,,0.57,WUHU216HW,2013-08-02 04:51:00,
2013-08-02 00:56:00,64.6,60.0,29.87,West,270,1.8,3.4,85,2.59,,,0.57,WUHU216HW,2013-08-02 04:56:00,
2013-08-02 01:01:00,64.4,59.5,29.87,WSW,248,1.3,3.4,84,2.59,,,1.14,WUHU216HW,2013-08-02 05:01:00,
2013-08-02 01:06:00,64.4,59.5,29.87,West,270,1.3,2.5,84,2.59,,,1.14,WUHU216HW,2013-08-02 05:06:00,
2013-08-02 01:10:00,64.4,59.9,29.87,NW,315,2.5,2.5,85,2.59,,,1.14,WUHU216HW,2013-08-02 05:10:00,
2013-08-02 01:15:00,64.4,59.9,29.87,NW,315,1.3,2.5,85,2.59,,,1.14,WUHU216HW,2013-08-02 05:15:00,
2013-08-02 01:21:00,64.3,59.7,29.87,WNW,293,1.6,2.5,85,2.59,,,1.14,WUHU216HW,2013-08-02 05:21:00,
2013-08-02 01:26:00,64.1,59.5,29.87,WNW,293,1.6,2.5,85,2.59,,,1.14,WUHU216HW,2013-08-02 05:26:00,
2013-08-02 01:30:00,64.1,59.5,29.87,NW,315,1.8,2.5,85,2.59,,,1.14,WUHU216HW,2013-08-02 05:30:00,
2013-08-02 01:36:00,63.9,59.7,29.87,WNW,293,2.2,2.5,86,2.59,,,1.14,WUHU216HW,2013-08-02 05:36:00,
2013-08-02 01:41:00,63.7,59.5,29.87,WNW,293,2.5,3.4,86,2.59,,,1.14,WUHU216HW,2013-08-02 05:41:00,
2013-08-02 01:46:00,63.7,59.9,29.87,NW,315,2.5,3.4,87,2.59,,,1.14,WUHU216HW,2013-08-02 05:46:00,
2013-08-02 01:50:00,63.7,59.9,29.87,West,270,2.0,2.9,87,2.59,,,1.14,WUHU216HW,2013-08-02 05:50:00,
2013-08-02 01:56:00,63.7,59.9,29.87,NW,315,1.8,2.9,87,2.59,,,1.14,WUHU216HW,2013-08-02 05:56:00,
2013-08-02 02:00:00,63.7,59.9,29.87,West,270,1.1,2.9,87,2.59,,,1.71,WUHU216HW,2013-08-02 06:00:00,
2013-08-02 02:05:00,63.9,60.0,29.87,WNW,293,2.2,3.1,87,2.59,,,1.71,WUHU216HW,2013-08-02 06:05:00,
2013-08-02 02:10:00,63.9,60.0,29.87,NW,315,1.6,3.4,87,2.59,,,1.71,WUHU216HW,2013-08-02 06:10:00,
2013-08-02 02:16:00,63.7,59.9,29.87,WNW,293,0.7,3.4,87,2.59,,,1.71,WUHU216HW,2013-08-02 06:16:00,
2013-08-02 02:20:00,63.7,59.9,29.87,NW,315,1.1,2.2,87,2.59,,,1.71,WUHU216HW,2013-08-02 06:20:00,
2013-08-02 02:25:00,63.7,59.9,29.87,WSW,248,1.1,1.8,87,2.59,,,1.71,WUHU216HW,2013-08-02 06:25:00,
2013-08-02 02:30:00,63.7,59.9,29.87,West,270,1.8,2.2,87,2.59,,,1.71,WUHU216HW,2013-08-02 06:30:00,
2013-08-02 02:35:00,63.7,59.9,29.87,West,270,1.1,2.2,87,2.59,,,1.71,WUHU216HW,2013-08-02 06:35:00,
2013-08-02 02:40:00,63.5,59.7,29.86,WSW,248,1.1,2.5,87,2.59,,,1.71,WUHU216HW,2013-08-02 06:40:00,
2013-08-02 02:45:00,63.4,59.5,29.86,SW,225,1.1,2.5,87,2.59,,,1.71,WUHU216HW,2013-08-02 06:45:00,
2013-08-02 02:50:00,63.4,59.5,29.86,WSW,248,0.4,2.5,87,2.59,,,1.71,WUHU216HW,2013-08-02 06:50:00,
2013-08-02 02:55:00,63.4,59.5,29.86,West,270,1.3,2.2,87,2.59,,,1.71,WUHU216HW,2013-08-02 06:55:00,
2013-08-02 03:00:00,63.4,59.5,29.86,WNW,293,0.9,1.8,87,2.59,,,2.28,WUHU216HW,2013-08-02 07:00:00,
2013-08-02 03:05:00,63.2,59.3,29.86,WSW,248,1.3,1.8,87,2.59,,,2.28,WUHU216HW,2013-08-02 07:05:00,
2013-08-02 03:10:00,63.0,59.1,29.86,WNW,293,0.7,1.3,87,2.59,,,2.28,WUHU216HW,2013-08-02 07:10:00,
2013-08-02 03:15:00,63.0,59.1,29.86,WSW,248,0.9,1.3,87,2.59,,,2.28,WUHU216HW,2013-08-02 07:15:00,
2013-08-02 03:20:00,63.0,59.1,29.86,WSW,248,0.0,1.1,87,2.59,,,2.28,WUHU216HW,2013-08-02 07:20:00,
2013-08-02 03:25:00,63.0,59.1,29.86,WSW,248,0.0,0.9,87,2.59,,,2.28,WUHU216HW,2013-08-02 07:25:00,
2013-08-02 03:30:00,63.0,59.1,29.86,WSW,248,0.0,0.0,87,2.59,,,2.28,WUHU216HW,2013-08-02 07:30:00,
2013-08-02 03:35:00,62.8,59.0,29.86,SW,225,0.4,1.1,87,2.59,,,2.28,WUHU216HW,2013-08-02 07:35:00,
2013-08-02 03:40:00,62.8,59.0,29.86,WSW,248,0.0,1.1,87,2.59,,,2.28,WUHU216HW,2013-08-02 07:40:00,
2013-08-02 03:45:00,62.6,58.8,29.86,WSW,248,0.0,1.1,87,2.59,,,2.28,WUHU216HW,2013-08-02 07:45:00,
2013-08-02 03:50:00,62.6,58.8,29.86,WSW,248,0.0,0.7,87,2.59,,,2.28,WUHU216HW,2013-08-02 07:50:00,
2013-08-02 03:55:00,62.6,58.4,29.86,WSW,248,0.0,0.0,86,2.59,,,2.28,WUHU216HW,2013-08-02 07:55:00,
2013-08-02 04:00:00,62.5,58.2,29.86,WSW,248,0.0,0.0,86,2.59,,,2.85,WUHU216HW,2013-08-02 08:00:00,
2013-08-02 04:05:00,62.3,58.1,29.86,WSW,248,0.0,0.0,86,2.59,,,2.85,WUHU216HW,2013-08-02 08:05:00,
2013-08-02 04:10:00,62.3,58.1,29.86,WSW,248,0.0,0.0,86,2.59,,,2.85,WUHU216HW,2013-08-02 08:10:00,
2013-08-02 04:15:00,61.9,57.7,29.86,WSW,248,0.4,0.7,86,2.59,,,2.85,WUHU216HW,2013-08-02 08:15:00,
2013-08-02 04:20:00,61.7,57.5,29.86,WSW,248,0.0,1.1,86,2.59,,,2.85,WUHU216HW,2013-08-02 08:20:00,
2013-08-02 04:25:00,61.6,57.3,29.86,SW,225,1.3,1.8,86,2.59,,,2.85,WUHU216HW,2013-08-02 08:25:00,
2013-08-02 04:30:00,61.6,57.3,29.86,WSW,248,0.4,1.8,86,2.59,,,2.85,WUHU216HW,2013-08-02 08:30:00,
2013-08-02 04:35:00,61.6,57.7,29.86,SW,225,0.0,1.3,87,2.59,,,2.85,WUHU216HW,2013-08-02 08:35:00,
2013-08-02 04:40:00,61.4,57.5,29.86,SW,225,0.0,0.9,87,2.59,,,2.85,WUHU216HW,2013-08-02 08:40:00,
2013-08-02 04:45:00,61.4,57.2,29.86,WSW,248,1.8,1.8,86,2.59,,,2.85,WUHU216HW,2013-08-02 08:45:00,
2013-08-02 04:50:00,61.2,57.0,29.86,SW,225,1.6,2.5,86,2.59,,,2.85,WUHU216HW,2013-08-02 08:50:00,
2013-08-02 04:55:00,61.2,57.0,29.86,SW,225,1.6,2.5,86,2.59,,,2.85,WUHU216HW,2013-08-02 08:55:00,
2013-08-02 05:00:00,61.2,57.3,29.86,SW,225,1.1,2.0,87,2.59,,,3.42,WUHU216HW,2013-08-02 09:00:00,
2013-08-02 05:05:00,61.2,57.3,29.86,WSW,248,1.6,2.7,87,2.59,,,3.42,WUHU216HW,2013-08-02 09:05:00,
2013-08-02 05:10:00,61.2,57.3,29.86,SW,225,1.1,2.7,87,2.59,,,3.42,WUHU216HW,2013-08-02 09:10:00,
2013-08-02 05:15:00,61.4,57.5,29.86,SSW,203,0.4,1.8,87,2.59,,,3.42,WUHU216HW,2013-08-02 09:15:00,
2013-08-02 05:20:00,61.2,57.3,29.86,SSW,203,0.7,1.6,87,2.59,,,3.42,WUHU216HW,2013-08-02 09:20:00,
2013-08-02 05:25:00,61.2,57.3,29.86,SSE,158,2.0,2.0,87,2.59,,,3.42,WUHU216HW,2013-08-02 09:25:00,
2013-08-02 05:30:00,61.2,57.3,29.86,WSW,248,1.1,2.0,87,2.59,,,3.42,WUHU216HW,2013-08-02 09:30:00,
2013-08-02 05:35:00,61.2,57.3,29.86,SW,225,0.0,2.0,87,2.59,,,3.42,WUHU216HW,2013-08-02 09:35:00,
2013-08-02 05:40:00,61.2,57.3,29.86,WSW,248,0.4,1.6,87,2.59,,,3.42,WUHU216HW,2013-08-02 09:40:00,
2013-08-02 05:45:00,61.2,57.3,29.86,SSW,203,0.9,2.0,87,2.59,,,3.42,WUHU216HW,2013-08-02 09:45:00,
2013-08-02 05:50:00,61.2,57.3,29.86,SSW,203,0.9,2.0,87,2.59,,,3.42,WUHU216HW,2013-08-02 09:50:00,
2013-08-02 05:55:00,61.2,57.3,29.86,SW,225,0.9,1.6,87,2.59,,,3.42,WUHU216HW,2013-08-02 09:55:00,
2013-08-02 06:00:00,61.0,57.2,29.86,SSW,203,0.4,1.8,87,2.59,,,3.99,WUHU216HW,2013-08-02 10:00:00,
2013-08-02 06:05:00,61.0,57.2,29.87,WSW,248,0.9,2.0,87,2.59,,,3.99,WUHU216HW,2013-08-02 10:05:00,
2013-08-02 06:10:00,61.0,57.2,29.87,SSW,203,1.1,2.2,87,2.59,,,3.99,WUHU216HW,2013-08-02 10:10:00,
2013-08-02 06:15:00,61.0,57.2,29.87,SW,225,1.1,2.2,87,2.59,,,3.99,WUHU216HW,2013-08-02 10:15:00,
2013-08-02 06:20:00,61.0,57.5,29.87,SSW,203,0.7,2.5,88,2.60,,,3.99,WUHU216HW,2013-08-02 10:20:00,
2013-08-02 06:25:00,61.0,57.5,29.87,SSW,203,0.7,2.5,88,2.60,,,3.99,WUHU216HW,2013-08-02 10:25:00,
2013-08-02 06:30:00,61.0,57.5,29.87,SW,225,0.4,2.2,88,2.60,,,3.99,WUHU216HW,2013-08-02 10:30:00,
2013-08-02 06:35:00,61.0,57.5,29.87,SW,225,0.9,1.8,88,2.60,,,3.99,WUHU216HW,2013-08-02 10:35:00,
2013-08-02 06:40:00,61.0,57.5,29.87,South,180,1.1,2.5,88,2.60,,,3.99,WUHU216HW,2013-08-02 10:40:00,
2013-08-02 06:47:00,61.0,57.5,29.88,SW,225,1.8,2.9,88,2.60,,,3.99,WUHU216HW,2013-08-02 10:47:00,
2013-08-02 06:52:00,61.0,57.5,29.87,South,180,0.9,2.9,88,2.60,,,3.99,WUHU216HW,2013-08-02 10:52:00,
2013-08-02 06:57:00,61.2,57.7,29.88,SW,225,1.1,2.2,88,2.60,,,3.99,WUHU216HW,2013-08-02 10:57:00,
2013-08-02 07:02:00,61.2,57.7,29.88,SSW,203,1.6,2.2,88,2.60,,,4.57,WUHU216HW,2013-08-02 11:02:00,
2013-08-02 07:07:00,61.2,58.0,29.88,WSW,248,1.1,2.7,89,2.60,,,4.57,WUHU216HW,2013-08-02 11:07:00,
2013-08-02 07:12:00,61.4,58.1,29.88,SW,225,1.1,2.7,89,2.60,,,4.57,WUHU216HW,2013-08-02 11:12:00,
2013-08-02 07:17:00,61.6,58.3,29.88,WSW,248,1.1,2.0,89,2.59,,,4.57,WUHU216HW,2013-08-02 11:17:00,
2013-08-02 07:22:00,61.6,58.7,29.88,WSW,248,1.8,2.5,90,2.59,,,4.57,WUHU216HW,2013-08-02 11:22:00,
2013-08-02 07:27:00,61.9,59.0,29.88,SW,225,1.6,2.7,90,2.59,,,4.57,WUHU216HW,2013-08-02 11:27:00,
2013-08-02 07:32:00,62.1,59.2,29.88,SW,225,0.4,2.9,90,2.59,,,4.57,WUHU216HW,2013-08-02 11:32:00,
2013-08-02 07:37:00,62.3,59.4,29.88,SW,225,1.8,2.9,90,2.59,,,4.57,WUHU216HW,2013-08-02 11:37:00,
2013-08-02 07:42:00,62.6,59.8,29.89,West,270,1.1,2.2,90,2.59,,,4.57,WUHU216HW,2013-08-02 11:42:00,
2013-08-02 07:47:00,63.0,60.1,29.89,SE,135,0.4,2.2,90,2.59,,,4.57,WUHU216HW,2013-08-02 11:47:00,
2013-08-02 07:52:00,63.4,60.8,29.89,South,180,0.9,2.5,91,2.59,,,4.57,WUHU216HW,2013-08-02 11:52:00,
2013-08-02 07:57:00,63.7,60.8,29.89,West,270,1.6,2.5,90,2.59,,,4.57,WUHU216HW,2013-08-02 11:57:00,
2013-08-02 08:02:00,63.9,61.0,29.89,South,180,0.7,2.0,90,2.59,,,5.16,WUHU216HW,2013-08-02 12:02:00,
2013-08-02 08:07:00,64.3,61.7,29.89,South,180,1.8,2.0,91,2.59,,,5.16,WUHU216HW,2013-08-02 12:07:00,
2013-08-02 08:12:00,64.8,62.2,29.89,NNW,338,1.3,2.2,91,2.59,,,5.16,WUHU216HW,2013-08-02 12:12:00,
2013-08-02 08:17:00,65.2,62.5,29.89,SW,225,2.5,3.4,91,2.59,,,5.16,WUHU216HW,2013-08-02 12:17:00,
2013-08-02 08:22:00,65.7,63.0,29.89,West,270,2.5,4.0,91,2.59,,,5.16,WUHU216HW,2013-08-02 12:22:00,
2013-08-02 08:27:00,65.9,63.5,29.89,WSW,248,3.8,5.8,92,2.59,,,5.16,WUHU216HW,2013-08-02 12:27:00,
2013-08-02 08:32:00,66.2,63.8,29.88,WNW,293,4.3,5.8,92,2.59,,,5.16,WUHU216HW,2013-08-02 12:32:00,
2013-08-02 08:37:00,66.8,64.0,29.89,NW,315,4.3,6.5,91,2.59,,,5.16,WUHU216HW,2013-08-02 12:37:00,
2013-08-02 08:42:00,67.3,64.3,29.89,West,270,2.7,6.5,90,2.59,,,5.16,WUHU216HW,2013-08-02 12:42:00,
2013-08-02 08:47:00,67.7,64.0,29.89,West,270,4.5,8.3,88,2.59,,,5.16,WUHU216HW,2013-08-02 12:47:00,
2013-08-02 08:52:00,67.7,64.0,29.89,SSW,203,2.9,8.3,88,2.59,,,5.16,WUHU216HW,2013-08-02 12:52:00,
2013-08-02 08:57:00,67.9,64.2,29.89,SW,225,0.9,5.6,88,2.59,,,5.16,WUHU216HW,2013-08-02 12:57:00,
2013-08-02 09:02:00,68.0,64.4,29.89,NNW,338,2.2,5.4,88,2.59,,,5.74,WUHU216HW,2013-08-02 13:02:00,
2013-08-02 09:07:00,68.0,64.4,29.89,West,270,3.1,6.5,88,2.59,,,5.74,WUHU216HW,2013-08-02 13:07:00,
2013-08-02 09:12:00,68.2,64.2,29.88,NW,315,3.8,6.5,87,2.59,,,5.74,WUHU216HW,2013-08-02 13:12:00,
2013-08-02 09:17:00,68.0,64.0,29.89,NW,315,2.5,5.1,87,2.59,,,5.74,WUHU216HW,2013-08-02 13:17:00,
2013-08-02 09:22:00,68.2,64.2,29.89,WNW,293,4.5,5.1,87,2.59,,,5.74,WUHU216HW,2013-08-02 13:22:00,
2013-08-02 09:27:00,68.2,63.9,29.88,WNW,293,3.8,6.3,86,2.59,,,5.74,WUHU216HW,2013-08-02 13:27:00,
2013-08-02 09:32:00,68.2,63.6,29.88,NW,315,2.0,6.3,85,2.59,,,5.74,WUHU216HW,2013-08-02 13:32:00,
2013-08-02 09:37:00,68.0,63.7,29.87,WNW,293,0.0,4.9,86,2.59,,,5.74,WUHU216HW,2013-08-02 13:37:00,
2013-08-02 09:43:00,68.4,64.0,29.88,West,270,1.8,3.6,86,2.59,,,5.74,WUHU216HW,2013-08-02 13:43:00,
2013-08-02 09:48:00,68.8,64.1,29.87,NW,315,2.9,5.1,85,2.59,,,5.74,WUHU216HW,2013-08-02 13:48:00,
2013-08-02 09:53:00,68.8,64.1,29.88,NW,315,2.5,5.1,85,2.59,,,5.74,WUHU216HW,2013-08-02 13:53:00,
2013-08-02 09:57:00,68.9,63.9,29.88,NW,315,0.4,3.6,84,2.59,,,5.74,WUHU216HW,2013-08-02 13:57:00,
2013-08-02 10:03:00,69.1,64.1,29.87,SSE,158,0.0,3.6,84,5.18,,,6.89,WUHU216HW,2013-08-02 14:03:00,
2013-08-02 10:08:00,69.8,64.7,29.87,NNW,338,1.1,1.6,84,5.18,,,6.89,WUHU216HW,2013-08-02 14:08:00,
2013-08-02 10:13:00,70.2,65.1,29.87,NW,315,1.1,2.5,84,5.18,,,6.89,WUHU216HW,2013-08-02 14:13:00,
2013-08-02 10:18:00,70.4,64.6,29.87,NW,315,2.7,4.9,82,5.18,,,6.89,WUHU216HW,2013-08-02 14:18:00,
2013-08-02 10:22:00,70.6,64.1,29.88,NW,315,4.0,9.2,80,5.18,,,6.89,WUHU216HW,2013-08-02 14:22:00,
2013-08-02 10:27:00,70.2,63.4,29.87,NW,315,5.1,9.2,79,5.18,,,6.89,WUHU216HW,2013-08-02 14:27:00,
2013-08-02 10:32:00,70.4,63.9,29.87,WNW,293,5.4,9.2,80,5.18,,,6.89,WUHU216HW,2013-08-02 14:32:00,
2013-08-02 10:38:00,70.6,62.9,29.86,NW,315,6.0,9.2,77,5.18,,,6.89,WUHU216HW,2013-08-02 14:38:00,
2013-08-02 10:42:00,70.4,63.6,29.86,SSW,203,2.2,6.9,79,5.18,,,6.89,WUHU216HW,2013-08-02 14:42:00,
2013-08-02 10:47:00,70.2,62.6,29.86,NW,315,6.9,8.3,77,5.18,,,6.89,WUHU216HW,2013-08-02 14:47:00,
2013-08-02 10:52:00,70.0,62.8,29.87,NW,315,1.6,8.3,78,5.18,,,6.89,WUHU216HW,2013-08-02 14:52:00,
2013-08-02 10:57:00,70.2,63.4,29.86,WNW,293,1.3,7.6,79,2.59,,,6.89,WUHU216HW,2013-08-02 14:57:00,
2013-08-02 11:03:00,70.6,62.9,29.87,North,0,3.8,9.8,77,2.59,,,7.47,WUHU216HW,2013-08-02 15:03:00,
2013-08-02 11:08:00,70.6,62.9,29.86,NNW,338,0.4,9.8,77,2.59,,,7.47,WUHU216HW,2013-08-02 15:08:00,
2013-08-02 11:13:00,70.7,63.1,29.87,NNW,338,7.4,10.5,77,2.59,,,7.47,WUHU216HW,2013-08-02 15:13:00,
2013-08-02 11:18:00,70.9,62.9,29.86,North,0,4.9,11.6,76,2.59,,,7.47,WUHU216HW,2013-08-02 15:18:00,
2013-08-02 11:23:00,70.9,61.8,29.86,NW,315,10.1,11.6,73,2.59,,,7.47,WUHU216HW,2013-08-02 15:23:00,
2013-08-02 11:28:00,70.7,62.4,29.86,WSW,248,6.7,11.4,75,2.59,,,7.47,WUHU216HW,2013-08-02 15:28:00,
2013-08-02 11:33:00,70.9,63.7,29.87,NNW,338,6.3,11.9,78,2.59,,,7.47,WUHU216HW,2013-08-02 15:33:00,
2013-08-02 11:38:00,71.5,64.6,29.87,NW,315,6.3,12.8,79,2.59,,,7.47,WUHU216HW,2013-08-02 15:38:00,
2013-08-02 11:43:00,71.8,64.6,29.86,NW,315,5.4,12.8,78,2.59,,,7.47,WUHU216HW,2013-08-02 15:43:00,
2013-08-02 11:48:00,72.0,64.4,29.86,NW,315,8.5,13.6,77,2.59,,,7.47,WUHU216HW,2013-08-02 15:48:00,
2013-08-02 11:53:00,72.4,64.7,29.87,West,270,11.4,13.6,77,2.59,,,7.47,WUHU216HW,2013-08-02 15:53:00,
2013-08-02 11:58:00,72.4,62.5,29.87,WNW,293,11.2,17.2,71,2.59,,,7.47,WUHU216HW,2013-08-02 15:58:00,
2013-08-02 12:03:00,71.6,58.8,29.87,WNW,293,11.9,17.2,64,2.59,,,8.05,WUHU216HW,2013-08-02 16:03:00,
2013-08-02 12:08:00,70.9,60.2,29.87,NW,315,9.2,17.2,69,2.59,,,8.05,WUHU216HW,2013-08-02 16:08:00,
2013-08-02 12:13:00,70.4,62.0,29.87,WNW,293,9.2,11.9,75,2.59,,,8.05,WUHU216HW,2013-08-02 16:13:00,
2013-08-02 12:18:00,70.6,62.9,29.87,West,270,8.9,11.6,77,2.59,,,8.05,WUHU216HW,2013-08-02 16:18:00,
2013-08-02 12:23:00,70.6,63.7,29.87,West,270,7.6,11.6,79,2.59,,,8.05,WUHU216HW,2013-08-02 16:23:00,
2013-08-02 12:28:00,70.7,64.3,29.86,NNW,338,12.8,18.6,80,2.59,,,8.05,WUHU216HW,2013-08-02 16:28:00,
2013-08-02 12:33:00,71.1,64.6,29.86,WSW,248,15.0,18.6,80,2.59,,,8.05,WUHU216HW,2013-08-02 16:33:00,
2013-08-02 12:38:00,71.3,64.8,29.86,NW,315,6.3,17.9,80,2.59,,,8.05,WUHU216HW,2013-08-02 16:38:00,
2013-08-02 12:43:00,72.0,65.2,29.86,NW,315,6.5,15.7,79,2.59,,,8.05,WUHU216HW,2013-08-02 16:43:00,
2013-08-02 12:48:00,73.1,65.1,29.87,NNW,338,8.5,12.5,76,2.59,,,8.05,WUHU216HW,2013-08-02 16:48:00,
2013-08-02 12:53:00,73.4,65.1,29.86,WNW,293,9.8,14.3,75,2.59,,,8.05,WUHU216HW,2013-08-02 16:53:00,
2013-08-02 12:58:00,73.4,63.5,29.86,WNW,293,12.8,18.1,71,2.59,,,8.05,WUHU216HW,2013-08-02 16:58:00,
2013-08-02 13:03:00,73.3,63.7,29.87,WNW,293,14.5,18.6,72,2.59,,,8.63,WUHU216HW,2013-08-02 17:03:00,
2013-08-02 13:08:00,73.4,63.2,29.87,NW,315,11.9,18.6,70,2.59,,,8.63,WUHU216HW,2013-08-02 17:08:00,
2013-08-02 13:13:00,73.8,63.6,29.87,NW,315,8.5,14.5,70,2.59,,,8.63,WUHU216HW,2013-08-02 17:13:00,
2013-08-02 13:17:00,74.2,63.4,29.86,NW,315,11.4,15.7,69,2.59,,,8.63,WUHU216HW,2013-08-02 17:17:00,
2013-08-02 13:22:00,74.5,63.7,29.86,NW,315,9.8,15.7,69,2.59,,,8.63,WUHU216HW,2013-08-02 17:22:00,
2013-08-02 13:27:00,75.2,63.9,29.86,NW,315,6.5,11.4,68,2.59,,,8.63,WUHU216HW,2013-08-02 17:27:00,
2013-08-02 13:33:00,75.1,61.2,29.86,NW,315,13.4,15.0,62,2.59,,,8.63,WUHU216HW,2013-08-02 17:33:00,
2013-08-02 13:38:00,75.2,60.9,29.86,NNW,338,14.1,16.3,61,2.59,,,8.63,WUHU216HW,2013-08-02 17:38:00,
2013-08-02 13:43:00,75.2,60.9,29.87,NNW,338,8.9,16.3,61,2.59,,,8.63,WUHU216HW,2013-08-02 17:43:00,
2013-08-02 13:48:00,75.2,60.5,29.87,NNW,338,8.7,15.0,60,2.59,,,8.63,WUHU216HW,2013-08-02 17:48:00,
2013-08-02 13:53:00,75.2,60.5,29.87,West,270,10.5,16.1,60,2.59,,,8.63,WUHU216HW,2013-08-02 17:53:00,
2013-08-02 13:58:00,75.6,59.8,29.87,NW,315,11.0,17.4,58,2.59,,,8.63,WUHU216HW,2013-08-02 17:58:00,
2013-08-02 14:03:00,75.6,60.9,29.87,WNW,293,10.1,17.4,60,2.59,,,9.21,WUHU216HW,2013-08-02 18:03:00,
2013-08-02 14:08:00,75.4,60.1,29.87,WNW,293,19.9,19.9,59,2.59,,,9.21,WUHU216HW,2013-08-02 18:08:00,
2013-08-02 14:13:00,75.4,58.6,29.87,WNW,293,12.3,19.9,56,2.59,,,9.21,WUHU216HW,2013-08-02 18:13:00,
2013-08-02 14:18:00,75.6,58.3,29.87,NW,315,15.0,19.9,55,2.59,,,9.21,WUHU216HW,2013-08-02 18:18:00,
2013-08-02 14:23:00,75.6,59.3,29.87,NW,315,10.7,21.5,57,2.59,,,9.21,WUHU216HW,2013-08-02 18:23:00,
2013-08-02 14:28:00,76.0,60.1,29.87,NW,315,6.9,21.5,58,2.59,,,9.21,WUHU216HW,2013-08-02 18:28:00,
2013-08-02 14:33:00,76.3,59.4,29.87,WSW,248,14.8,20.1,56,2.59,,,9.21,WUHU216HW,2013-08-02 18:33:00,
2013-08-02 14:38:00,76.1,59.8,29.87,NW,315,11.4,20.1,57,2.59,,,9.21,WUHU216HW,2013-08-02 18:38:00,
2013-08-02 14:43:00,76.0,58.6,29.87,NW,315,15.0,20.8,55,2.59,,,9.21,WUHU216HW,2013-08-02 18:43:00,
2013-08-02 14:48:00,75.6,58.8,29.87,NW,315,10.1,20.8,56,2.59,,,9.21,WUHU216HW,2013-08-02 18:48:00,
2013-08-02 14:53:00,75.6,58.3,29.87,WNW,293,19.0,20.1,55,2.59,,,9.21,WUHU216HW,2013-08-02 18:53:00,
2013-08-02 14:58:00,75.4,59.7,29.87,WNW,293,9.8,19.2,58,2.59,,,9.21,WUHU216HW,2013-08-02 18:58:00,
2013-08-02 15:03:00,76.1,59.8,29.88,NNW,338,4.9,19.2,57,2.59,,,9.79,WUHU216HW,2013-08-02 19:03:00,
2013-08-02 15:08:00,76.9,58.4,29.87,NW,315,13.2,15.9,53,2.59,,,9.79,WUHU216HW,2013-08-02 19:08:00,
2013-08-02 15:13:00,76.7,57.2,29.88,NNW,338,16.1,22.4,51,2.59,,,9.79,WUHU216HW,2013-08-02 19:13:00,
2013-08-02 15:18:00,76.7,58.2,29.87,WNW,293,13.9,22.4,53,2.59,,,9.79,WUHU216HW,2013-08-02 19:18:00,
2013-08-02 15:23:00,76.3,58.4,29.87,NNW,338,10.5,18.1,54,2.59,,,9.79,WUHU216HW,2013-08-02 19:23:00,
2013-08-02 15:28:00,76.3,58.0,29.87,NW,315,12.1,18.6,53,2.59,,,9.79,WUHU216HW,2013-08-02 19:28:00,
2013-08-02 15:33:00,76.0,57.6,29.87,NNW,338,11.9,21.5,53,2.59,,,9.79,WUHU216HW,2013-08-02 19:33:00,
2013-08-02 15:38:00,75.1,57.2,29.86,WNW,293,13.6,21.5,54,2.59,,,9.79,WUHU216HW,2013-08-02 19:38:00,
2013-08-02 15:43:00,75.2,57.0,29.86,NNW,338,12.5,20.8,53,2.59,,,9.79,WUHU216HW,2013-08-02 19:43:00,
2013-08-02 15:48:00,75.2,57.0,29.86,NW,315,17.9,23.0,53,2.59,,,9.79,WUHU216HW,2013-08-02 19:48:00,
2013-08-02 15:53:00,75.4,58.2,29.86,WNW,293,11.0,23.0,55,2.59,,,9.79,WUHU216HW,2013-08-02 19:53:00,
2013-08-02 15:58:00,76.0,58.6,29.86,NW,315,12.3,18.1,55,2.59,,,9.79,WUHU216HW,2013-08-02 19:58:00,
2013-08-02 16:03:00,76.0,57.6,29.86,NW,315,10.5,21.3,53,2.59,,,10.37,WUHU216HW,2013-08-02 20:03:00,
2013-08-02 16:08:00,75.8,58.0,29.86,NW,315,15.0,21.3,54,2.59,,,10.37,WUHU216HW,2013-08-02 20:08:00,
2013-08-02 16:13:00,76.0,58.2,29.86,WNW,293,14.8,17.0,54,2.59,,,10.37,WUHU216HW,2013-08-02 20:13:00,
2013-08-02 16:18:00,76.0,59.1,29.86,WSW,248,10.1,15.9,56,2.59,,,10.37,WUHU216HW,2013-08-02 20:18:00,
2013-08-02 16:23:00,75.4,58.6,29.86,North,0,13.2,19.2,56,2.59,,,10.37,WUHU216HW,2013-08-02 20:23:00,
2013-08-02 16:28:00,75.2,57.4,29.86,West,270,15.9,22.4,54,2.59,,,10.37,WUHU216HW,2013-08-02 20:28:00,
2013-08-02 16:33:00,74.9,58.2,29.86,WNW,293,13.6,23.9,56,2.59,,,10.37,WUHU216HW,2013-08-02 20:33:00,
2013-08-02 16:38:00,74.7,58.0,29.86,WNW,293,11.4,23.9,56,2.59,,,10.37,WUHU216HW,2013-08-02 20:38:00,
2013-08-02 16:43:00,74.7,59.0,29.86,WNW,293,18.1,23.0,58,2.59,,,10.37,WUHU216HW,2013-08-02 20:43:00,
2013-08-02 16:48:00,74.5,58.2,29.86,NW,315,13.6,23.0,57,2.59,,,10.37,WUHU216HW,2013-08-02 20:48:00,
2013-08-02 16:53:00,74.5,58.8,29.86,NW,315,10.3,22.1,58,2.59,,,10.37,WUHU216HW,2013-08-02 20:53:00,
2013-08-02 16:58:00,74.9,59.6,29.86,North,0,9.8,17.9,59,2.59,,,10.37,WUHU216HW,2013-08-02 20:58:00,
2013-08-02 17:03:00,75.1,59.8,29.86,West,270,8.3,20.1,59,2.59,,,10.94,WUHU216HW,2013-08-02 21:03:00,
2013-08-02 17:08:00,75.1,59.8,29.86,NW,315,15.0,20.1,59,2.59,,,10.94,WUHU216HW,2013-08-02 21:08:00,
2013-08-02 17:13:00,75.1,58.3,29.86,West,270,14.5,18.1,56,2.59,,,10.94,WUHU216HW,2013-08-02 21:13:00,
2013-08-02 17:18:00,74.9,59.6,29.86,NNW,338,18.1,21.7,59,2.59,,,10.94,WUHU216HW,2013-08-02 21:18:00,
2013-08-02 17:23:00,74.2,59.9,29.86,NW,315,18.6,21.7,61,2.59,,,10.94,WUHU216HW,2013-08-02 21:23:00,
2013-08-02 17:28:00,74.0,59.7,29.86,WSW,248,12.5,21.5,61,2.59,,,10.94,WUHU216HW,2013-08-02 21:28:00,
2013-08-02 17:33:00,74.0,59.2,29.86,NNE,23,13.9,21.7,60,2.59,,,10.94,WUHU216HW,2013-08-02 21:33:00,
2013-08-02 17:38:00,74.2,59.9,29.86,West,270,14.8,21.7,61,2.59,,,10.94,WUHU216HW,2013-08-02 21:38:00,
2013-08-02 17:43:00,74.5,61.1,29.86,NW,315,10.5,17.2,63,2.59,,,10.94,WUHU216HW,2013-08-02 21:43:00,
2013-08-02 17:48:00,74.3,60.5,29.86,WNW,293,15.9,17.2,62,2.59,,,10.94,WUHU216HW,2013-08-02 21:48:00,
2013-08-02 17:53:00,74.5,60.7,29.86,NNW,338,17.9,17.9,62,2.59,,,10.94,WUHU216HW,2013-08-02 21:53:00,
2013-08-02 17:58:00,74.2,60.3,29.86,NW,315,17.2,19.0,62,2.59,,,10.94,WUHU216HW,2013-08-02 21:58:00,
2013-08-02 18:03:00,74.2,60.8,29.85,West,270,17.9,20.8,63,2.59,,,11.52,WUHU216HW,2013-08-02 22:03:00,
2013-08-02 18:08:00,74.2,60.3,29.86,NW,315,17.4,20.8,62,2.59,,,11.52,WUHU216HW,2013-08-02 22:08:00,
2013-08-02 18:12:00,74.0,60.1,29.85,West,270,15.0,17.4,62,2.59,,,11.52,WUHU216HW,2013-08-02 22:12:00,
2013-08-02 18:18:00,73.8,60.4,29.85,NW,315,13.2,17.7,63,2.59,,,11.52,WUHU216HW,2013-08-02 22:18:00,
2013-08-02 18:23:00,73.6,61.1,29.85,NW,315,10.3,17.7,65,2.59,,,11.52,WUHU216HW,2013-08-02 22:23:00,
2013-08-02 18:28:00,73.8,61.8,29.85,NNW,338,7.2,17.4,66,2.59,,,11.52,WUHU216HW,2013-08-02 22:28:00,
2013-08-02 18:33:00,74.0,61.5,29.85,NW,315,5.4,17.4,65,2.59,,,11.52,WUHU216HW,2013-08-02 22:33:00,
2013-08-02 18:37:00,74.3,60.9,29.85,WNW,293,9.6,13.2,63,2.59,,,11.52,WUHU216HW,2013-08-02 22:37:00,
2013-08-02 18:42:00,74.5,60.2,29.85,WNW,293,6.9,11.4,61,2.59,,,11.52,WUHU216HW,2013-08-02 22:42:00,
2013-08-02 18:47:00,74.5,59.8,29.84,North,0,0.0,9.6,60,2.59,,,11.52,WUHU216HW,2013-08-02 22:47:00,
2013-08-02 18:53:00,74.5,59.2,29.84,North,0,0.0,6.9,59,2.59,,,11.52,WUHU216HW,2013-08-02 22:53:00,
2013-08-02 18:58:00,74.5,58.8,29.84,North,0,0.0,0.0,58,2.59,,,11.52,WUHU216HW,2013-08-02 22:58:00,
2013-08-02 19:03:00,74.5,58.8,29.84,North,0,0.0,0.0,58,2.59,,,12.10,WUHU216HW,2013-08-02 23:03:00,
2013-08-02 19:08:00,74.2,58.9,29.84,North,0,0.0,0.0,59,2.59,,,12.10,WUHU216HW,2013-08-02 23:08:00,
2013-08-02 19:12:00,74.0,58.2,29.84,North,0,0.0,0.0,58,2.59,,,12.10,WUHU216HW,2013-08-02 23:12:00,
2013-08-02 19:17:00,73.6,58.3,29.84,North,0,0.0,0.0,59,2.59,,,12.10,WUHU216HW,2013-08-02 23:17:00,
2013-08-02 19:23:00,73.1,58.3,29.84,North,0,0.0,0.0,60,2.59,,,12.10,WUHU216HW,2013-08-02 23:23:00,
2013-08-02 19:27:00,72.5,58.3,29.84,North,0,0.0,0.0,61,2.59,,,12.10,WUHU216HW,2013-08-02 23:27:00,
2013-08-02 19:33:00,72.2,58.4,29.84,North,0,0.0,0.0,62,2.59,,,12.10,WUHU216HW,2013-08-02 23:33:00,
2013-08-02 19:38:00,72.0,58.2,29.85,North,0,0.0,0.0,62,2.59,,,12.10,WUHU216HW,2013-08-02 23:38:00,
2013-08-02 19:43:00,71.8,58.1,29.85,North,0,0.0,0.0,62,2.59,,,12.10,WUHU216HW,2013-08-02 23:43:00,
2013-08-02 19:48:00,71.6,58.3,29.85,North,0,0.0,0.0,63,2.59,,,12.10,WUHU216HW,2013-08-02 23:48:00,
2013-08-02 19:53:00,71.6,58.3,29.85,North,0,0.0,0.0,63,2.59,,,12.10,WUHU216HW,2013-08-02 23:53:00,
2013-08-02 19:58:00,71.6,58.3,29.85,North,0,0.0,0.0,63,2.59,,,12.10,WUHU216HW,2013-08-02 23:58:00,
2013-08-02 20:03:00,71.5,58.6,29.85,NW,315,6.5,6.5,64,2.59,,,12.68,WUHU216HW,2013-08-03 00:03:00,
2013-08-02 20:08:00,71.5,59.0,29.85,WNW,293,6.0,6.5,65,2.59,,,12.68,WUHU216HW,2013-08-03 00:08:00,
2013-08-02 20:13:00,71.3,58.9,29.85,North,0,6.3,10.5,65,2.59,,,12.68,WUHU216HW,2013-08-03 00:13:00,
2013-08-02 20:18:00,71.3,58.9,29.84,NW,315,6.3,10.5,65,2.59,,,12.68,WUHU216HW,2013-08-03 00:18:00,
2013-08-02 20:22:00,71.1,59.6,29.84,NW,315,9.2,11.9,67,2.59,,,12.68,WUHU216HW,2013-08-03 00:22:00,
2013-08-02 20:27:00,71.1,60.0,29.84,NW,315,9.4,12.3,68,2.59,,,12.68,WUHU216HW,2013-08-03 00:27:00,
2013-08-02 20:32:00,70.9,59.9,29.84,NW,315,5.8,12.3,68,2.59,,,12.68,WUHU216HW,2013-08-03 00:32:00,
2013-08-02 20:38:00,70.9,60.2,29.84,WNW,293,6.3,9.8,69,2.59,,,12.68,WUHU216HW,2013-08-03 00:38:00,
2013-08-02 20:43:00,70.7,60.0,29.84,NW,315,4.3,8.7,69,2.59,,,12.68,WUHU216HW,2013-08-03 00:43:00,
2013-08-02 20:48:00,70.6,59.9,29.84,WNW,293,5.4,6.9,69,2.59,,,12.68,WUHU216HW,2013-08-03 00:48:00,
2013-08-02 20:53:00,70.4,60.1,29.84,WSW,248,6.3,9.6,70,2.59,,,12.68,WUHU216HW,2013-08-03 00:53:00,
2013-08-02 20:58:00,70.6,60.3,29.84,WNW,293,10.7,10.7,70,2.59,,,12.68,WUHU216HW,2013-08-03 00:58:00,
2013-08-02 21:03:00,70.6,60.7,29.84,NW,315,7.2,11.2,71,2.59,,,13.26,WUHU216HW,2013-08-03 01:03:00,
2013-08-02 21:08:00,70.4,60.1,29.84,WNW,293,4.3,11.2,70,2.59,,,13.26,WUHU216HW,2013-08-03 01:08:00,
2013-08-02 21:13:00,70.4,60.5,29.84,NW,315,3.4,7.6,71,2.59,,,13.26,WUHU216HW,2013-08-03 01:13:00,
2013-08-02 21:17:00,70.2,60.3,29.84,WNW,293,2.5,7.6,71,2.59,,,13.26,WUHU216HW,2013-08-03 01:17:00,
2013-08-02 21:23:00,70.2,60.3,29.84,SW,225,2.7,6.9,71,2.59,,,13.26,WUHU216HW,2013-08-03 01:23:00,
2013-08-02 21:28:00,70.2,60.3,29.84,WNW,293,3.8,4.3,71,2.59,,,13.26,WUHU216HW,2013-08-03 01:28:00,
2013-08-02 21:33:00,70.0,60.1,29.84,WNW,293,1.8,4.7,71,2.59,,,13.26,WUHU216HW,2013-08-03 01:33:00,
2013-08-02 21:38:00,69.8,59.9,29.84,West,270,3.6,4.7,71,2.59,,,13.26,WUHU216HW,2013-08-03 01:38:00,
2013-08-02 21:43:00,69.8,59.9,29.84,SW,225,1.8,4.7,71,2.59,,,13.26,WUHU216HW,2013-08-03 01:43:00,
2013-08-02 21:48:00,70.0,60.1,29.84,West,270,2.0,4.7,71,2.59,,,13.26,WUHU216HW,2013-08-03 01:48:00,
2013-08-02 21:53:00,70.0,60.1,29.84,WSW,248,1.1,3.8,71,2.59,,,13.26,WUHU216HW,2013-08-03 01:53:00,
2013-08-02 21:58:00,69.8,59.9,29.84,SW,225,1.1,3.8,71,2.59,,,13.26,WUHU216HW,2013-08-03 01:58:00,
2013-08-02 22:03:00,69.8,59.9,29.84,NW,315,2.5,3.4,71,2.59,,,13.84,WUHU216HW,2013-08-03 02:03:00,
2013-08-02 22:08:00,69.7,59.8,29.84,SSW,203,2.5,3.6,71,2.59,,,13.84,WUHU216HW,2013-08-03 02:08:00,
2013-08-02 22:13:00,69.5,60.0,29.84,WSW,248,2.5,3.6,72,2.59,,,13.84,WUHU216HW,2013-08-03 02:13:00,
2013-08-02 22:18:00,69.3,59.9,29.84,WNW,293,4.0,4.0,72,2.59,,,13.84,WUHU216HW,2013-08-03 02:18:00,
2013-08-02 22:23:00,69.1,59.7,29.84,NW,315,6.7,6.7,72,2.59,,,13.84,WUHU216HW,2013-08-03 02:23:00,
2013-08-02 22:28:00,69.1,59.7,29.84,WNW,293,3.4,8.7,72,2.59,,,13.84,WUHU216HW,2013-08-03 02:28:00,
2013-08-02 22:33:00,68.9,59.5,29.83,NNW,338,3.8,8.7,72,2.59,,,13.84,WUHU216HW,2013-08-03 02:33:00,
2013-08-02 22:38:00,68.8,60.1,29.83,WNW,293,6.7,7.2,74,2.59,,,13.84,WUHU216HW,2013-08-03 02:38:00,
2013-08-02 22:43:00,68.4,59.8,29.83,NNW,338,2.5,8.7,74,2.60,,,13.85,WUHU216HW,2013-08-03 02:43:00,
2013-08-02 22:48:00,67.9,59.7,29.83,WNW,293,4.7,8.7,75,2.60,,,13.85,WUHU216HW,2013-08-03 02:48:00,
2013-08-02 22:53:00,67.5,60.0,29.83,WNW,293,4.3,6.3,77,2.62,,,13.87,WUHU216HW,2013-08-03 02:53:00,
2013-08-02 22:58:00,67.0,60.3,29.83,WNW,293,6.7,7.6,79,2.62,,,13.87,WUHU216HW,2013-08-03 02:58:00,
2013-08-02 23:03:00,66.6,60.3,29.84,WNW,293,3.4,7.6,80,2.62,,,14.48,WUHU216HW,2013-08-03 03:03:00,
2013-08-02 23:08:00,66.6,60.3,29.84,WNW,293,7.2,10.1,80,2.62,,,14.48,WUHU216HW,2013-08-03 03:08:00,
2013-08-02 23:13:00,66.2,60.6,29.84,NNW,338,4.7,10.5,82,2.62,,,14.48,WUHU216HW,2013-08-03 03:13:00,
2013-08-02 23:18:00,66.2,60.6,29.83,NW,315,8.5,10.5,82,2.62,,,14.48,WUHU216HW,2013-08-03 03:18:00,
2013-08-02 23:23:00,66.1,61.0,29.84,NW,315,5.6,11.0,84,2.63,,,14.49,WUHU216HW,2013-08-03 03:23:00,
2013-08-02 23:28:00,65.9,60.6,29.83,WSW,248,4.9,11.0,83,2.63,,,14.49,WUHU216HW,2013-08-03 03:28:00,
2013-08-02 23:33:00,65.7,61.0,29.83,WNW,293,9.2,9.4,85,2.63,,,14.49,WUHU216HW,2013-08-03 03:33:00,
2013-08-02 23:38:00,65.7,61.4,29.84,West,270,6.5,9.4,86,2.62,,,14.49,WUHU216HW,2013-08-03 03:38:00,
2013-08-02 23:43:00,65.5,61.2,29.83,NNW,338,4.5,9.2,86,2.62,,,14.49,WUHU216HW,2013-08-03 03:43:00,
2013-08-02 23:48:00,65.5,61.2,29.83,WNW,293,5.6,9.2,86,2.62,,,14.49,WUHU216HW,2013-08-03 03:48:00,
2013-08-02 23:53:00,65.5,61.2,29.83,NW,315,4.3,8.9,86,2.60,,,14.49,WUHU216HW,2013-08-03 03:53:00,
2013-08-02 23:58:00,65.5,61.6,29.83,WNW,293,7.6,8.9,87,2.60,,,14.49,WUHU216HW,2013-08-03 03:58:00,